Time;durP1;ratioP1;P1;durP2;ratioP2;P2;SDS_P1;SDS_P2;PMS_P1;PMS_P2;Temp;Humidity;BMP_temperature;BMP_pressure;BME280_temperature;BME280_humidity;BME280_pressure;Samples;Min_cycle;Max_cycle;Signal;HPM_P1;HPM_P2
2023/12/30 00:01:57;;;;;;;7.03;2.10;;;6.50;99.90;;;;;;5031996;28;20041;-62
2023/12/30 00:04:22;;;;;;;9.80;2.22;;;6.50;99.90;;;;;;5014455;28;20124;-62
2023/12/30 00:06:48;;;;;;;11.60;2.58;;;6.50;99.90;;;;;;5014284;28;20045;-62
2023/12/30 00:09:14;;;;;;;6.55;2.15;;;6.60;99.90;;;;;;5031107;28;20033;-61
2023/12/30 00:11:39;;;;;;;7.78;1.92;;;6.60;99.90;;;;;;5050722;28;20084;-62
2023/12/30 00:14:05;;;;;;;13.30;2.50;;;6.60;99.90;;;;;;5034601;28;20028;-62
2023/12/30 00:16:31;;;;;;;9.25;2.33;;;6.60;99.90;;;;;;5016850;28;20041;-62
2023/12/30 00:18:57;;;;;;;10.65;1.60;;;6.60;99.90;;;;;;5034721;28;20056;-62
2023/12/30 00:21:23;;;;;;;9.85;2.53;;;6.60;99.90;;;;;;5034335;28;20481;-62
2023/12/30 00:23:49;;;;;;;8.35;2.78;;;6.70;99.90;;;;;;5033618;28;20382;-62
2023/12/30 00:26:23;;;;;;;7.85;2.35;;;6.70;99.90;;;;;;5050553;28;20053;-62
2023/12/30 00:28:49;;;;;;;5.85;1.98;;;6.70;99.90;;;;;;5036985;28;20045;-62
2023/12/30 00:31:26;;;;;;;7.75;1.88;;;6.70;99.90;;;;;;5031256;28;20422;-62
2023/12/30 00:33:54;;;;;;;8.45;2.28;;;6.80;99.90;;;;;;5014097;28;20128;-62
2023/12/30 00:36:19;;;;;;;14.35;2.20;;;6.80;99.90;;;;;;5014050;28;20053;-62
2023/12/30 00:38:45;;;;;;;13.05;2.50;;;6.80;99.90;;;;;;5014538;28;20049;-61
2023/12/30 00:41:13;;;;;;;11.30;2.33;;;6.80;99.90;;;;;;5030820;28;20056;-61
2023/12/30 00:43:42;;;;;;;13.57;2.45;;;6.90;99.90;;;;;;5013506;28;20429;-62
2023/12/30 00:46:08;;;;;;;9.80;1.83;;;6.80;99.90;;;;;;5014090;28;20042;-62
2023/12/30 00:48:34;;;;;;;8.57;2.83;;;6.80;99.90;;;;;;5014085;28;20048;-62
2023/12/30 00:51:01;;;;;;;6.43;1.60;;;6.80;99.90;;;;;;5031305;28;20033;-62
2023/12/30 00:53:27;;;;;;;11.20;2.78;;;6.80;99.90;;;;;;4997578;28;20045;-62
2023/12/30 00:55:56;;;;;;;6.05;1.50;;;6.80;99.90;;;;;;5013925;28;20116;-62
2023/12/30 00:58:21;;;;;;;8.07;1.83;;;6.80;99.90;;;;;;5032584;28;20041;-62
2023/12/30 01:00:51;;;;;;;6.10;2.47;;;6.80;99.90;;;;;;5050310;28;20037;-61
2023/12/30 01:03:17;;;;;;;9.15;2.60;;;6.80;99.90;;;;;;5034530;28;20048;-62
2023/12/30 01:05:44;;;;;;;6.57;1.73;;;6.80;99.90;;;;;;5053637;28;20509;-62
2023/12/30 01:08:10;;;;;;;10.93;2.65;;;6.80;99.90;;;;;;5017774;28;20094;-62
2023/12/30 01:10:35;;;;;;;9.57;2.85;;;6.80;99.90;;;;;;5045384;28;20120;-62
2023/12/30 01:13:01;;;;;;;10.77;2.38;;;6.80;99.90;;;;;;5016786;28;20041;-61
2023/12/30 01:15:27;;;;;;;9.60;2.38;;;6.80;99.90;;;;;;5017438;28;20041;-61
2023/12/30 01:17:53;;;;;;;7.85;2.90;;;6.80;99.90;;;;;;5017754;28;20137;-61
2023/12/30 01:20:19;;;;;;;9.18;2.10;;;6.80;99.90;;;;;;5016713;28;20053;-61
2023/12/30 01:22:44;;;;;;;6.95;2.15;;;6.80;99.90;;;;;;5033794;28;20478;-61
2023/12/30 01:25:10;;;;;;;8.45;1.77;;;6.80;99.90;;;;;;5033609;28;20049;-61
2023/12/30 01:27:36;;;;;;;11.15;2.50;;;6.80;99.90;;;;;;5032647;28;20048;-61
2023/12/30 01:30:01;;;;;;;8.43;1.80;;;6.80;99.90;;;;;;5027904;28;20041;-61
2023/12/30 01:32:27;;;;;;;5.78;1.92;;;6.90;99.90;;;;;;5017313;28;20866;-61
2023/12/30 01:34:53;;;;;;;14.10;2.00;;;6.90;99.90;;;;;;5034892;28;20041;-61
2023/12/30 01:37:18;;;;;;;10.43;1.98;;;6.90;99.90;;;;;;5037223;28;20037;-61
2023/12/30 01:39:44;;;;;;;12.15;2.20;;;6.90;99.90;;;;;;5036451;28;20036;-61
2023/12/30 01:42:10;;;;;;;15.27;3.58;;;6.90;99.90;;;;;;5019119;28;20120;-61
2023/12/30 01:44:36;;;;;;;8.65;2.42;;;7.00;99.90;;;;;;5033430;28;20045;-61
2023/12/30 01:47:02;;;;;;;11.20;2.83;;;7.00;99.90;;;;;;5016551;28;20049;-61
2023/12/30 01:49:28;;;;;;;18.85;2.40;;;7.00;99.90;;;;;;5016845;28;20041;-61
2023/12/30 01:51:54;;;;;;;9.90;2.53;;;7.00;99.90;;;;;;5033385;28;20120;-61
2023/12/30 01:54:21;;;;;;;7.15;2.20;;;7.10;99.90;;;;;;5033793;28;20033;-61
2023/12/30 01:56:49;;;;;;;10.55;2.42;;;7.10;99.90;;;;;;5016745;28;20099;-61
2023/12/30 01:59:16;;;;;;;12.73;3.28;;;7.10;99.90;;;;;;5033211;28;20184;-61
2023/12/30 02:01:43;;;;;;;9.55;2.67;;;7.10;99.90;;;;;;5016229;28;20102;-61
2023/12/30 02:04:10;;;;;;;10.18;2.28;;;7.10;99.90;;;;;;5044452;28;20068;-61
2023/12/30 02:06:35;;;;;;;5.80;2.70;;;7.10;99.90;;;;;;5036463;28;20353;-61
2023/12/30 02:09:02;;;;;;;8.43;2.45;;;7.10;99.90;;;;;;5036091;28;20033;-61
2023/12/30 02:11:28;;;;;;;13.73;2.63;;;7.10;99.90;;;;;;5019899;28;20137;-61
2023/12/30 02:13:54;;;;;;;10.02;2.10;;;7.10;99.90;;;;;;5036347;28;20509;-61
2023/12/30 02:16:20;;;;;;;10.18;2.13;;;7.10;99.90;;;;;;5052622;28;20041;-61
2023/12/30 02:18:45;;;;;;;10.60;2.38;;;7.10;99.90;;;;;;5036339;28;20497;-61
2023/12/30 02:21:11;;;;;;;11.27;2.28;;;7.10;99.90;;;;;;5036475;28;20119;-61
2023/12/30 02:23:36;;;;;;;9.18;3.25;;;7.20;99.90;;;;;;5035352;28;20069;-61
2023/12/30 02:26:05;;;;;;;8.38;2.85;;;7.20;99.90;;;;;;5036318;28;20044;-61
2023/12/30 02:28:31;;;;;;;9.45;3.35;;;7.20;99.90;;;;;;5035825;28;20076;-61
2023/12/30 02:30:56;;;;;;;12.60;3.60;;;7.30;99.90;;;;;;5015197;28;20119;-62
2023/12/30 02:33:22;;;;;;;10.30;3.50;;;7.30;99.90;;;;;;5016583;28;20454;-61
2023/12/30 02:35:48;;;;;;;9.57;2.45;;;7.30;99.90;;;;;;5016141;28;20077;-61
2023/12/30 02:38:13;;;;;;;7.78;2.92;;;7.30;99.90;;;;;;5015214;28;20045;-61
2023/12/30 02:40:39;;;;;;;12.30;3.45;;;7.30;99.90;;;;;;5033796;28;20037;-61
2023/12/30 02:43:05;;;;;;;6.97;1.98;;;7.20;99.90;;;;;;5032531;28;20083;-61
2023/12/30 02:45:30;;;;;;;6.78;2.17;;;7.30;99.90;;;;;;5033330;28;20042;-61
2023/12/30 02:47:56;;;;;;;10.10;2.38;;;7.20;99.90;;;;;;5035974;28;20339;-61
2023/12/30 02:50:21;;;;;;;11.05;3.55;;;7.30;99.90;;;;;;5051506;28;20041;-62
2023/12/30 02:52:47;;;;;;;13.32;2.60;;;7.30;99.90;;;;;;5035900;28;20052;-62
2023/12/30 02:55:13;;;;;;;6.72;1.95;;;7.30;99.90;;;;;;5035403;28;20041;-62
2023/12/30 02:57:39;;;;;;;13.30;2.40;;;7.30;99.90;;;;;;5051416;28;20041;-62
2023/12/30 03:00:05;;;;;;;9.88;2.13;;;7.30;99.90;;;;;;5034254;28;20063;-62
2023/12/30 03:02:31;;;;;;;8.70;2.35;;;7.30;99.90;;;;;;5035047;28;20079;-62
2023/12/30 03:04:57;;;;;;;9.40;1.85;;;7.30;99.90;;;;;;5018197;28;20115;-62
2023/12/30 03:07:23;;;;;;;10.95;2.35;;;7.40;99.90;;;;;;5015328;28;20490;-62
2023/12/30 03:09:48;;;;;;;12.38;2.58;;;7.40;99.90;;;;;;5033181;28;20076;-62
2023/12/30 03:12:15;;;;;;;5.88;2.08;;;7.40;99.90;;;;;;5014982;28;20605;-62
2023/12/30 03:14:40;;;;;;;8.70;2.00;;;7.40;99.90;;;;;;5033679;28;20045;-62
2023/12/30 03:17:06;;;;;;;8.82;2.00;;;7.40;99.90;;;;;;5015904;28;20445;-62
2023/12/30 03:19:32;;;;;;;8.63;2.85;;;7.40;99.90;;;;;;5014487;28;20474;-62
2023/12/30 03:21:57;;;;;;;11.10;3.25;;;7.40;99.90;;;;;;5015966;28;20052;-62
2023/12/30 03:24:23;;;;;;;9.82;2.15;;;7.40;99.90;;;;;;5033506;28;20125;-62
2023/12/30 03:26:49;;;;;;;16.80;4.85;;;7.40;99.90;;;;;;5014309;28;20072;-62
2023/12/30 03:29:14;;;;;;;9.43;2.85;;;7.40;99.90;;;;;;5015713;28;20073;-62
2023/12/30 03:31:41;;;;;;;9.02;2.33;;;7.40;99.90;;;;;;5032791;28;20056;-62
2023/12/30 03:34:07;;;;;;;10.10;3.00;;;7.40;99.90;;;;;;5021828;28;20042;-62
2023/12/30 03:36:32;;;;;;;7.15;2.42;;;7.40;99.90;;;;;;4998611;28;20087;-62
2023/12/30 03:38:58;;;;;;;13.40;3.80;;;7.40;99.90;;;;;;5015421;28;20037;-62
2023/12/30 03:41:25;;;;;;;10.20;3.08;;;7.40;99.90;;;;;;5031905;28;20077;-62
2023/12/30 03:43:51;;;;;;;13.60;3.38;;;7.40;99.90;;;;;;5015812;28;20053;-62
2023/12/30 03:46:16;;;;;;;15.15;2.55;;;7.40;99.90;;;;;;5014912;28;20042;-61
2023/12/30 03:48:42;;;;;;;8.55;3.65;;;7.40;99.90;;;;;;5014315;28;20120;-61
2023/12/30 03:51:08;;;;;;;7.25;2.28;;;7.50;99.90;;;;;;5014919;28;20037;-61
2023/12/30 03:53:33;;;;;;;9.35;2.50;;;7.40;99.90;;;;;;5013963;28;20041;-62
2023/12/30 03:56:00;;;;;;;9.75;2.83;;;7.40;99.90;;;;;;5014963;28;20037;-61
2023/12/30 03:58:25;;;;;;;10.98;2.63;;;7.30;99.90;;;;;;5014994;28;20041;-61
2023/12/30 04:00:51;;;;;;;9.82;2.38;;;7.30;99.90;;;;;;5030487;28;20046;-61
2023/12/30 04:03:17;;;;;;;7.47;2.40;;;7.30;99.90;;;;;;5035336;28;20041;-61
2023/12/30 04:05:43;;;;;;;11.15;3.08;;;7.20;99.90;;;;;;5034264;28;20037;-61
2023/12/30 04:08:09;;;;;;;7.18;2.10;;;7.30;99.90;;;;;;5033385;28;20048;-61
2023/12/30 04:10:34;;;;;;;6.57;2.78;;;7.20;99.90;;;;;;5034594;28;20430;-62
2023/12/30 04:13:00;;;;;;;12.23;3.70;;;7.20;99.90;;;;;;5034511;28;20128;-61
2023/12/30 04:15:26;;;;;;;9.20;2.63;;;7.20;99.90;;;;;;5033692;28;20094;-62
2023/12/30 04:17:52;;;;;;;10.85;2.80;;;7.30;99.90;;;;;;5034333;28;20041;-61
2023/12/30 04:20:17;;;;;;;12.20;3.33;;;7.30;99.90;;;;;;5052144;28;20112;-61
2023/12/30 04:22:43;;;;;;;10.85;2.45;;;7.30;99.90;;;;;;5033392;28;20072;-61
2023/12/30 04:25:09;;;;;;;7.50;2.50;;;7.30;99.90;;;;;;5034162;28;20037;-61
2023/12/30 04:27:36;;;;;;;7.55;2.28;;;7.30;99.90;;;;;;5034082;28;20106;-61
2023/12/30 04:30:01;;;;;;;12.35;3.58;;;7.30;99.90;;;;;;5033674;28;20076;-61
2023/12/30 04:32:27;;;;;;;11.63;3.35;;;7.30;99.90;;;;;;5034346;28;20562;-61
2023/12/30 04:34:52;;;;;;;13.23;3.63;;;7.30;99.90;;;;;;5019145;28;20057;-61
2023/12/30 04:37:19;;;;;;;8.23;2.60;;;7.30;99.90;;;;;;5013718;28;20505;-61
2023/12/30 04:39:45;;;;;;;13.73;3.63;;;7.40;99.90;;;;;;5017688;28;20453;-61
2023/12/30 04:42:12;;;;;;;9.48;3.08;;;7.40;99.90;;;;;;5035073;28;20045;-61
2023/12/30 04:44:37;;;;;;;11.18;2.35;;;7.40;99.90;;;;;;5017807;28;20041;-61
2023/12/30 04:47:03;;;;;;;15.57;3.78;;;7.40;99.90;;;;;;5018473;28;20034;-61
2023/12/30 04:49:29;;;;;;;8.80;4.30;;;7.40;99.90;;;;;;5017911;28;20460;-61
2023/12/30 04:51:55;;;;;;;10.70;3.47;;;7.40;99.90;;;;;;5018179;28;20124;-61
2023/12/30 04:54:20;;;;;;;8.45;2.75;;;7.40;99.90;;;;;;5017982;28;20072;-61
2023/12/30 04:56:46;;;;;;;9.40;3.15;;;7.40;99.90;;;;;;5033706;28;20041;-61
2023/12/30 04:59:12;;;;;;;10.75;3.42;;;7.40;99.90;;;;;;5034635;28;20049;-61
2023/12/30 05:01:37;;;;;;;11.00;2.60;;;7.40;99.90;;;;;;5017960;28;20044;-61
2023/12/30 05:04:03;;;;;;;8.20;2.22;;;7.40;99.90;;;;;;5036653;28;20053;-61
2023/12/30 05:06:29;;;;;;;8.27;2.30;;;7.40;99.90;;;;;;5037509;28;20132;-62
2023/12/30 05:08:56;;;;;;;10.48;2.40;;;7.40;99.90;;;;;;5038057;28;20501;-62
2023/12/30 05:11:25;;;;;;;11.15;4.32;;;7.40;99.90;;;;;;5020640;28;20045;-61
2023/12/30 05:13:51;;;;;;;11.98;3.72;;;7.30;99.90;;;;;;5037455;28;20033;-61
2023/12/30 05:16:17;;;;;;;8.82;2.70;;;7.30;99.90;;;;;;5037924;28;20099;-61
2023/12/30 05:18:42;;;;;;;14.57;3.65;;;7.30;99.90;;;;;;5036518;28;20481;-62
2023/12/30 05:21:14;;;;;;;12.80;3.13;;;7.30;99.90;;;;;;5038103;28;20045;-61
2023/12/30 05:23:40;;;;;;;11.60;4.00;;;7.30;99.90;;;;;;5037380;28;20041;-62
2023/12/30 05:26:06;;;;;;;10.40;2.97;;;7.30;99.90;;;;;;5037262;28;20055;-62
2023/12/30 05:28:31;;;;;;;11.38;2.70;;;7.30;99.90;;;;;;5020512;28;20041;-62
2023/12/30 05:30:57;;;;;;;12.68;2.38;;;7.30;99.90;;;;;;5037580;28;20064;-61
2023/12/30 05:33:23;;;;;;;8.30;2.63;;;7.30;99.90;;;;;;5029380;28;20127;-61
2023/12/30 05:35:49;;;;;;;12.38;2.50;;;7.30;99.90;;;;;;5017762;28;21052;-61
2023/12/30 05:38:15;;;;;;;14.13;3.00;;;7.30;99.90;;;;;;5017243;28;20041;-62
2023/12/30 05:40:41;;;;;;;12.18;4.55;;;7.30;99.90;;;;;;5016840;28;20045;-61
2023/12/30 05:43:06;;;;;;;10.52;3.75;;;7.30;99.90;;;;;;5017631;28;20486;-61
2023/12/30 05:45:32;;;;;;;10.60;4.22;;;7.30;99.90;;;;;;5017034;28;20120;-61
2023/12/30 05:47:58;;;;;;;13.73;3.08;;;7.20;99.90;;;;;;5016683;28;20049;-61
2023/12/30 05:50:23;;;;;;;9.80;2.20;;;7.30;99.90;;;;;;5016934;28;20037;-61
2023/12/30 05:52:49;;;;;;;8.65;3.13;;;7.30;99.90;;;;;;5036570;28;20063;-61
2023/12/30 05:55:15;;;;;;;11.05;3.10;;;7.30;99.90;;;;;;5052474;28;20405;-61
2023/12/30 05:57:40;;;;;;;9.93;3.42;;;7.40;99.90;;;;;;5053606;28;20496;-61
2023/12/30 06:00:08;;;;;;;8.93;2.78;;;7.40;99.90;;;;;;5053921;28;20532;-61
2023/12/30 06:02:33;;;;;;;7.82;2.30;;;7.40;99.90;;;;;;5036616;28;20053;-62
2023/12/30 06:04:59;;;;;;;7.47;2.50;;;7.40;99.90;;;;;;5041939;28;20090;-61
2023/12/30 06:07:25;;;;;;;9.35;2.88;;;7.30;99.90;;;;;;5036326;28;20557;-61
2023/12/30 06:09:51;;;;;;;10.02;3.22;;;7.40;99.90;;;;;;5036918;28;20049;-61
2023/12/30 06:12:17;;;;;;;10.73;3.20;;;7.30;99.90;;;;;;5054289;28;20549;-61
2023/12/30 06:14:43;;;;;;;15.52;4.07;;;7.30;99.90;;;;;;5035607;28;20115;-61
2023/12/30 06:17:08;;;;;;;10.98;2.90;;;7.30;99.90;;;;;;5036256;28;20084;-62
2023/12/30 06:19:34;;;;;;;8.93;2.60;;;7.30;99.90;;;;;;5036469;28;20041;-61
2023/12/30 06:22:00;;;;;;;11.10;2.95;;;7.30;99.90;;;;;;5019343;28;20045;-61
2023/12/30 06:24:26;;;;;;;15.90;3.50;;;7.30;99.90;;;;;;5036489;28;20098;-61
2023/12/30 06:26:53;;;;;;;14.65;2.80;;;7.30;99.90;;;;;;5019761;28;20379;-61
2023/12/30 06:29:21;;;;;;;9.52;2.47;;;7.30;99.90;;;;;;5019215;28;20045;-61
2023/12/30 06:31:47;;;;;;;8.32;2.75;;;7.30;99.90;;;;;;5035906;28;20045;-61
2023/12/30 06:34:13;;;;;;;10.00;3.42;;;7.30;99.90;;;;;;5028452;28;20065;-61
2023/12/30 06:36:41;;;;;;;9.95;2.30;;;7.30;99.90;;;;;;5031828;28;20049;-61
2023/12/30 06:39:08;;;;;;;13.88;3.47;;;7.30;99.90;;;;;;5016390;28;20045;-61
2023/12/30 06:41:34;;;;;;;13.07;3.47;;;7.30;99.90;;;;;;5000028;28;20052;-61
2023/12/30 06:43:59;;;;;;;11.63;2.40;;;7.30;99.90;;;;;;5034847;28;20494;-61
2023/12/30 06:46:25;;;;;;;8.60;2.78;;;7.30;99.90;;;;;;5052766;28;20049;-61
2023/12/30 06:48:51;;;;;;;7.47;2.75;;;7.30;99.90;;;;;;5053847;28;20040;-61
2023/12/30 06:51:16;;;;;;;13.18;3.88;;;7.30;99.90;;;;;;5035315;28;20442;-61
2023/12/30 06:53:42;;;;;;;9.85;2.90;;;7.30;99.90;;;;;;5036009;28;20037;-62
2023/12/30 06:56:08;;;;;;;10.55;3.17;;;7.30;99.90;;;;;;5035735;28;20116;-61
2023/12/30 06:58:34;;;;;;;9.00;3.00;;;7.30;99.90;;;;;;5034773;28;20045;-61
2023/12/30 07:01:00;;;;;;;14.75;3.15;;;7.20;99.90;;;;;;5034959;28;20037;-62
2023/12/30 07:03:26;;;;;;;11.82;3.05;;;7.20;99.90;;;;;;5034820;28;20056;-61
2023/12/30 07:05:52;;;;;;;18.00;4.13;;;7.10;99.90;;;;;;5035601;28;20051;-62
2023/12/30 07:08:18;;;;;;;6.78;2.22;;;7.20;99.90;;;;;;5035443;28;20381;-61
2023/12/30 07:10:44;;;;;;;7.70;2.05;;;7.10;99.90;;;;;;5034864;28;20037;-61
2023/12/30 07:13:09;;;;;;;6.72;2.35;;;7.00;99.90;;;;;;5035228;28;20083;-61
2023/12/30 07:15:35;;;;;;;8.82;1.90;;;7.10;99.90;;;;;;5016036;28;20128;-61
2023/12/30 07:18:01;;;;;;;7.22;2.53;;;7.00;99.90;;;;;;5031383;28;20133;-62
2023/12/30 07:20:27;;;;;;;10.35;2.00;;;7.00;99.90;;;;;;5015639;28;20049;-61
2023/12/30 07:22:53;;;;;;;10.27;2.85;;;6.90;99.90;;;;;;5032354;28;20099;-61
2023/12/30 07:25:19;;;;;;;13.13;3.40;;;6.90;99.90;;;;;;5015095;28;20387;-61
2023/12/30 07:27:45;;;;;;;10.13;2.88;;;6.90;99.90;;;;;;5031587;28;20041;-61
2023/12/30 07:30:11;;;;;;;9.10;2.28;;;6.90;99.90;;;;;;5031588;28;20067;-61
2023/12/30 07:32:37;;;;;;;10.85;2.35;;;6.90;99.90;;;;;;5014568;28;20127;-61
2023/12/30 07:35:05;;;;;;;4.85;1.67;;;6.90;99.90;;;;;;5016107;28;20176;-61
2023/12/30 07:37:32;;;;;;;11.25;2.20;;;6.90;99.90;;;;;;5001366;28;20479;-61
2023/12/30 07:39:58;;;;;;;8.27;2.17;;;6.90;99.90;;;;;;5048760;28;20044;-61
2023/12/30 07:42:24;;;;;;;8.23;1.98;;;6.80;99.90;;;;;;5017830;28;20051;-61
2023/12/30 07:44:51;;;;;;;9.05;2.63;;;6.80;99.90;;;;;;5034817;28;20048;-61
2023/12/30 07:47:17;;;;;;;8.63;2.58;;;6.70;99.90;;;;;;5025422;28;20052;-61
2023/12/30 07:49:43;;;;;;;11.27;2.40;;;6.70;99.90;;;;;;5005117;28;20034;-61
2023/12/30 07:52:08;;;;;;;6.00;1.50;;;6.70;99.90;;;;;;5020643;28;20398;-61
2023/12/30 07:54:34;;;;;;;4.80;1.27;;;6.70;99.90;;;;;;5022838;28;20044;-61
2023/12/30 07:56:59;;;;;;;7.95;2.22;;;6.70;99.90;;;;;;5030464;28;20052;-61
2023/12/30 07:59:25;;;;;;;7.15;2.28;;;6.70;99.90;;;;;;5041997;28;20040;-61
2023/12/30 08:01:51;;;;;;;12.18;2.90;;;6.70;99.90;;;;;;5032083;28;20055;-61
2023/12/30 08:04:17;;;;;;;9.45;2.40;;;6.80;99.90;;;;;;5023540;28;20065;-61
2023/12/30 08:06:42;;;;;;;6.28;1.73;;;6.80;99.90;;;;;;5011436;28;20413;-61
2023/12/30 08:09:09;;;;;;;4.13;2.30;;;6.90;99.90;;;;;;5006739;28;20422;-60
2023/12/30 08:11:36;;;;;;;5.90;1.95;;;6.90;99.90;;;;;;5017044;28;20045;-60
2023/12/30 08:14:02;;;;;;;11.38;2.55;;;6.90;99.90;;;;;;5028739;28;20044;-60
2023/12/30 08:16:28;;;;;;;6.32;1.95;;;7.00;99.90;;;;;;5015580;28;20094;-60
2023/12/30 08:18:54;;;;;;;13.35;3.40;;;7.00;99.90;;;;;;5024665;28;20055;-60
2023/12/30 08:21:19;;;;;;;7.00;2.35;;;7.10;99.90;;;;;;5007199;28;20049;-60
2023/12/30 08:23:46;;;;;;;7.55;1.80;;;7.10;99.90;;;;;;5014722;28;20057;-60
2023/12/30 08:26:11;;;;;;;9.45;2.20;;;7.10;99.90;;;;;;5031332;28;20401;-60
2023/12/30 08:28:39;;;;;;;10.48;2.40;;;7.10;99.90;;;;;;5047008;28;20040;-60
2023/12/30 08:31:05;;;;;;;14.23;2.50;;;7.10;99.90;;;;;;5026029;28;20503;-60
2023/12/30 08:33:30;;;;;;;10.45;2.50;;;7.10;99.90;;;;;;5012296;28;20128;-60
2023/12/30 08:35:56;;;;;;;9.25;1.92;;;7.10;99.90;;;;;;4997130;28;20063;-60
2023/12/30 08:38:22;;;;;;;8.05;1.75;;;7.10;99.90;;;;;;5019389;28;20039;-60
2023/12/30 08:40:47;;;;;;;13.98;2.38;;;7.10;99.90;;;;;;5023142;28;20064;-60
2023/12/30 08:43:13;;;;;;;13.10;3.50;;;7.10;99.90;;;;;;5038025;28;20128;-60
2023/12/30 08:45:39;;;;;;;6.13;2.22;;;7.10;99.90;;;;;;5024078;28;20056;-60
2023/12/30 08:48:05;;;;;;;11.15;2.42;;;7.10;99.90;;;;;;5019482;28;20049;-60
2023/12/30 08:50:31;;;;;;;10.38;4.38;;;7.00;99.90;;;;;;5028601;28;20398;-60
2023/12/30 08:52:56;;;;;;;7.28;2.20;;;7.10;99.90;;;;;;5020835;28;20032;-60
2023/12/30 08:55:22;;;;;;;6.80;2.53;;;7.10;99.90;;;;;;5012787;28;20195;-61
2023/12/30 08:57:48;;;;;;;7.20;2.03;;;7.00;99.90;;;;;;5017449;28;20049;-61
2023/12/30 09:00:14;;;;;;;9.50;2.05;;;7.10;99.90;;;;;;5040413;28;20049;-61
2023/12/30 09:02:46;;;;;;;8.07;2.95;;;7.10;99.90;;;;;;5022037;28;20271;-60
2023/12/30 09:05:18;;;;;;;10.13;2.20;;;7.10;99.90;;;;;;5030740;28;20057;-60
2023/12/30 09:07:44;;;;;;;7.25;2.17;;;7.10;99.90;;;;;;5030056;28;20124;-60
2023/12/30 09:10:10;;;;;;;8.43;2.85;;;7.10;99.90;;;;;;5014842;28;20507;-60
2023/12/30 09:12:35;;;;;;;9.60;2.20;;;7.10;99.90;;;;;;5013344;28;20045;-60
2023/12/30 09:15:01;;;;;;;14.65;2.22;;;7.10;99.90;;;;;;4999294;28;20060;-60
2023/12/30 09:17:26;;;;;;;8.88;2.85;;;7.10;99.90;;;;;;5020958;28;20045;-61
2023/12/30 09:19:52;;;;;;;8.38;2.28;;;7.20;99.90;;;;;;5014477;28;20389;-60
2023/12/30 09:22:18;;;;;;;9.82;2.08;;;7.20;99.90;;;;;;5048060;28;20041;-60
2023/12/30 09:24:45;;;;;;;9.07;2.20;;;7.20;99.90;;;;;;5021694;28;20102;-61
2023/12/30 09:27:11;;;;;;;11.20;3.22;;;7.20;99.90;;;;;;5027761;28;20498;-61
2023/12/30 09:29:36;;;;;;;11.25;2.47;;;7.30;99.90;;;;;;5037319;28;20037;-61
2023/12/30 09:32:02;;;;;;;9.13;2.17;;;7.30;99.90;;;;;;5052678;28;20045;-61
2023/12/30 09:34:29;;;;;;;15.45;2.88;;;7.30;99.90;;;;;;5036233;28;20497;-61
2023/12/30 09:36:54;;;;;;;7.43;2.22;;;7.40;99.90;;;;;;5036201;28;20047;-61
2023/12/30 09:39:20;;;;;;;12.60;2.17;;;7.40;99.90;;;;;;5035424;28;20048;-61
2023/12/30 09:41:45;;;;;;;14.63;2.85;;;7.50;99.90;;;;;;5038417;28;20041;-61
2023/12/30 09:44:12;;;;;;;16.63;3.78;;;7.50;99.90;;;;;;5035903;28;20072;-61
2023/12/30 09:46:40;;;;;;;14.70;2.53;;;7.50;99.90;;;;;;5035907;28;20048;-61
2023/12/30 09:49:06;;;;;;;9.07;2.55;;;7.50;99.90;;;;;;5037157;28;20068;-61
2023/12/30 09:51:33;;;;;;;7.03;1.80;;;7.60;99.90;;;;;;5036762;28;20045;-61
2023/12/30 09:53:59;;;;;;;10.65;2.53;;;7.60;99.90;;;;;;5036089;28;20120;-61
2023/12/30 09:56:26;;;;;;;7.85;1.90;;;7.60;99.90;;;;;;5036774;28;20041;-61
2023/12/30 09:58:53;;;;;;;10.55;2.88;;;7.70;99.90;;;;;;5020425;28;20032;-61
2023/12/30 10:01:20;;;;;;;11.90;3.28;;;7.70;99.90;;;;;;5052683;28;20041;-61
2023/12/30 10:03:46;;;;;;;14.13;2.72;;;7.70;99.90;;;;;;5036405;28;20124;-61
2023/12/30 10:06:17;;;;;;;11.48;2.20;;;7.70;99.90;;;;;;5035822;28;20407;-61
2023/12/30 10:08:43;;;;;;;6.93;1.85;;;7.60;99.90;;;;;;5036356;28;20478;-61
2023/12/30 10:11:10;;;;;;;8.80;1.90;;;7.60;99.90;;;;;;5036543;28;20041;-61
2023/12/30 10:13:36;;;;;;;8.75;2.45;;;7.60;99.90;;;;;;5035495;28;20045;-61
2023/12/30 10:16:05;;;;;;;16.23;4.53;;;7.60;99.90;;;;;;5036860;28;20494;-61
2023/12/30 10:18:38;;;;;;;13.45;3.50;;;7.70;99.90;;;;;;5036200;28;20053;-61
2023/12/30 10:21:04;;;;;;;12.32;2.60;;;7.60;99.90;;;;;;5053655;28;20037;-61
2023/12/30 10:23:31;;;;;;;8.32;1.73;;;7.60;99.90;;;;;;5053697;28;20367;-61
2023/12/30 10:25:58;;;;;;;7.20;2.00;;;7.60;99.90;;;;;;5052788;28;20059;-61
2023/12/30 10:28:24;;;;;;;9.65;2.60;;;7.70;99.90;;;;;;5018726;28;20049;-61
2023/12/30 10:31:06;;;;;;;7.57;2.03;;;7.70;99.90;;;;;;5052936;28;20131;-61
2023/12/30 10:33:33;;;;;;;11.65;2.88;;;7.70;99.90;;;;;;5035566;28;20086;-61
2023/12/30 10:35:59;;;;;;;9.07;2.30;;;7.70;99.90;;;;;;5034437;28;20044;-61
2023/12/30 10:38:26;;;;;;;9.35;1.75;;;7.70;99.90;;;;;;5052260;28;20501;-61
2023/12/30 10:40:52;;;;;;;9.52;2.45;;;7.80;99.90;;;;;;5036102;28;20398;-61
2023/12/30 10:43:19;;;;;;;12.25;2.25;;;7.80;99.90;;;;;;5052996;28;20041;-61
2023/12/30 10:46:00;;;;;;;7.55;2.38;;;7.80;99.90;;;;;;5036023;28;20102;-61
2023/12/30 10:48:31;;;;;;;8.57;2.60;;;7.80;99.90;;;;;;5034821;28;20402;-61
2023/12/30 10:51:01;;;;;;;9.23;2.70;;;7.80;99.90;;;;;;5035891;28;20120;-61
2023/12/30 10:53:36;;;;;;;11.60;4.68;;;7.90;99.90;;;;;;5035450;28;20041;-61
2023/12/30 10:56:03;;;;;;;7.80;2.15;;;7.90;99.90;;;;;;5018907;28;20143;-61
2023/12/30 10:58:36;;;;;;;8.40;1.98;;;7.90;99.90;;;;;;5035748;28;20044;-61
2023/12/30 11:01:03;;;;;;;14.93;2.28;;;7.90;99.90;;;;;;5035631;28;20564;-61
2023/12/30 11:03:31;;;;;;;8.07;1.80;;;7.90;99.90;;;;;;5034584;28;20064;-61
2023/12/30 11:06:44;;;;;;;7.78;2.13;;;7.90;99.90;;;;;;5019102;28;20045;-61
2023/12/30 11:09:11;;;;;;;4.32;1.80;;;7.90;99.90;;;;;;5010980;28;20126;-61
2023/12/30 11:11:53;;;;;;;10.25;2.60;;;7.80;99.90;;;;;;5018375;28;20159;-61
2023/12/30 11:14:22;;;;;;;8.75;1.60;;;7.90;99.90;;;;;;5035163;28;20041;-61
2023/12/30 11:16:51;;;;;;;14.05;3.50;;;7.80;99.90;;;;;;5034822;28;20497;-61
2023/12/30 11:19:33;;;;;;;8.63;2.00;;;7.80;99.90;;;;;;5035084;28;20041;-61
2023/12/30 11:22:05;;;;;;;12.05;2.60;;;7.90;99.90;;;;;;5035294;28;20494;-61
2023/12/30 11:24:31;;;;;;;7.68;2.13;;;7.90;99.90;;;;;;5034263;28;20049;-61
2023/12/30 11:26:58;;;;;;;5.80;1.70;;;7.90;99.90;;;;;;5035447;28;20041;-61
2023/12/30 11:29:25;;;;;;;6.90;2.42;;;7.90;99.90;;;;;;5034905;28;20040;-61
2023/12/30 11:31:55;;;;;;;9.02;1.65;;;7.90;99.90;;;;;;5034192;28;20056;-61
2023/12/30 11:34:22;;;;;;;7.35;2.55;;;8.00;99.90;;;;;;5018354;28;20037;-61
2023/12/30 11:36:49;;;;;;;7.55;2.45;;;8.00;99.90;;;;;;5051413;28;20071;-61
2023/12/30 11:39:25;;;;;;;9.02;1.67;;;8.00;99.90;;;;;;5034270;28;20048;-61
2023/12/30 11:41:54;;;;;;;6.82;1.67;;;8.10;99.90;;;;;;5051641;28;20108;-61
2023/12/30 11:44:20;;;;;;;6.10;1.85;;;8.10;99.90;;;;;;5034846;28;20041;-61
2023/12/30 11:46:48;;;;;;;12.65;2.17;;;8.10;99.90;;;;;;5050135;28;20037;-61
2023/12/30 11:49:21;;;;;;;6.55;2.00;;;8.10;99.90;;;;;;5034610;28;20076;-61
2023/12/30 11:51:48;;;;;;;11.30;1.95;;;8.00;99.90;;;;;;5033966;28;20377;-61
2023/12/30 11:54:13;;;;;;;8.73;1.98;;;7.90;99.90;;;;;;5034691;28;20151;-61
2023/12/30 11:56:40;;;;;;;7.53;1.75;;;7.90;99.90;;;;;;5051229;28;20076;-61
2023/12/30 11:59:07;;;;;;;11.20;1.77;;;7.80;99.90;;;;;;5034327;28;20371;-61
2023/12/30 12:01:33;;;;;;;17.92;3.67;;;7.80;99.90;;;;;;5034244;28;20123;-61
2023/12/30 12:03:58;;;;;;;12.65;2.63;;;7.80;99.90;;;;;;5018014;28;20145;-61
2023/12/30 12:06:24;;;;;;;8.40;2.78;;;7.80;99.90;;;;;;5050396;28;20055;-61
2023/12/30 12:08:50;;;;;;;5.63;1.92;;;7.70;99.90;;;;;;5052090;28;20512;-61
2023/12/30 12:11:16;;;;;;;8.32;2.15;;;7.70;99.90;;;;;;5034202;28;20041;-61
2023/12/30 12:13:42;;;;;;;9.65;1.77;;;7.70;99.90;;;;;;5033673;28;20037;-61
2023/12/30 12:16:07;;;;;;;8.93;1.75;;;7.70;99.90;;;;;;5050897;28;20041;-61
2023/12/30 12:18:33;;;;;;;12.13;2.35;;;7.70;99.90;;;;;;5034118;28;20048;-61
2023/12/30 12:21:03;;;;;;;9.32;4.50;;;7.70;99.90;;;;;;5017422;28;20044;-61
2023/12/30 12:23:30;;;;;;;168.75;142.40;;;7.80;99.90;;;;;;5034237;28;20511;-61
2023/12/30 12:25:57;;;;;;;335.83;191.10;;;7.80;99.90;;;;;;5050902;28;20041;-61
2023/12/30 12:28:23;;;;;;;407.73;236.30;;;7.80;99.90;;;;;;5049798;28;20068;-61
2023/12/30 12:30:49;;;;;;;253.75;135.80;;;7.80;99.90;;;;;;5033966;28;20037;-61
2023/12/30 12:33:18;;;;;;;185.50;109.15;;;7.90;99.90;;;;;;5033981;28;20430;-61
2023/12/30 12:35:44;;;;;;;166.15;132.45;;;7.90;99.90;;;;;;5033094;28;20052;-61
2023/12/30 12:38:10;;;;;;;290.42;210.52;;;7.90;99.90;;;;;;5034089;28;20049;-61
2023/12/30 12:40:38;;;;;;;252.85;159.07;;;7.90;99.90;;;;;;5050444;28;20045;-61
2023/12/30 12:43:03;;;;;;;225.85;127.25;;;7.90;99.90;;;;;;5033953;28;20465;-61
2023/12/30 12:45:29;;;;;;;263.88;151.15;;;7.90;99.90;;;;;;5034116;28;20068;-61
2023/12/30 12:47:55;;;;;;;375.98;229.15;;;7.90;99.90;;;;;;5034498;28;20045;-62